sensor_id;sensor_type;location;lat;lon;timestamp;temperature;humidity
79030;DHT22;68511;51.146;7.012;2023-06-26T00:00:50;19.80;61.60
79030;DHT22;68511;51.146;7.012;2023-06-26T00:01:50;19.80;61.60
79030;DHT22;68511;51.146;7.012;2023-06-26T00:02:51;19.80;61.60
79030;DHT22;68511;51.146;7.012;2023-06-26T00:03:51;19.80;61.60
79030;DHT22;68511;51.146;7.012;2023-06-26T00:04:52;19.80;61.60
79030;DHT22;68511;51.146;7.012;2023-06-26T00:05:53;19.80;61.60
79030;DHT22;68511;51.146;7.012;2023-06-26T00:06:54;19.80;61.70
79030;DHT22;68511;51.146;7.012;2023-06-26T00:07:54;19.80;61.70
79030;DHT22;68511;51.146;7.012;2023-06-26T00:08:55;19.80;61.70
79030;DHT22;68511;51.146;7.012;2023-06-26T00:09:56;19.80;61.60
79030;DHT22;68511;51.146;7.012;2023-06-26T00:10:57;19.80;61.70
79030;DHT22;68511;51.146;7.012;2023-06-26T00:11:57;19.80;61.60
79030;DHT22;68511;51.146;7.012;2023-06-26T00:12:59;19.80;61.60
79030;DHT22;68511;51.146;7.012;2023-06-26T00:14:00;19.80;61.60
79030;DHT22;68511;51.146;7.012;2023-06-26T00:15:01;19.80;61.60
79030;DHT22;68511;51.146;7.012;2023-06-26T00:16:01;19.80;61.60
79030;DHT22;68511;51.146;7.012;2023-06-26T00:17:03;19.80;61.60
79030;DHT22;68511;51.146;7.012;2023-06-26T00:18:04;19.80;61.60
79030;DHT22;68511;51.146;7.012;2023-06-26T00:19:04;19.80;61.60
79030;DHT22;68511;51.146;7.012;2023-06-26T00:20:05;19.80;61.60
79030;DHT22;68511;51.146;7.012;2023-06-26T00:21:05;19.80;61.70
79030;DHT22;68511;51.146;7.012;2023-06-26T00:22:06;19.80;61.60
79030;DHT22;68511;51.146;7.012;2023-06-26T00:23:06;19.80;61.60
79030;DHT22;68511;51.146;7.012;2023-06-26T00:24:07;19.80;61.60
79030;DHT22;68511;51.146;7.012;2023-06-26T00:25:08;19.80;61.60
79030;DHT22;68511;51.146;7.012;2023-06-26T00:26:10;19.80;62.40
79030;DHT22;68511;51.146;7.012;2023-06-26T00:27:11;19.80;61.60
79030;DHT22;68511;51.146;7.012;2023-06-26T00:28:11;19.80;61.60
79030;DHT22;68511;51.146;7.012;2023-06-26T00:29:12;19.80;61.60
79030;DHT22;68511;51.146;7.012;2023-06-26T00:30:12;19.80;61.60
79030;DHT22;68511;51.146;7.012;2023-06-26T00:31:13;19.80;61.60
79030;DHT22;68511;51.146;7.012;2023-06-26T00:32:13;19.80;61.60
79030;DHT22;68511;51.146;7.012;2023-06-26T00:33:13;19.80;61.60
79030;DHT22;68511;51.146;7.012;2023-06-26T00:34:14;19.80;61.60
79030;DHT22;68511;51.146;7.012;2023-06-26T00:35:15;19.80;61.60
79030;DHT22;68511;51.146;7.012;2023-06-26T00:36:16;19.80;61.70
79030;DHT22;68511;51.146;7.012;2023-06-26T00:37:16;19.80;61.60
79030;DHT22;68511;51.146;7.012;2023-06-26T00:38:17;19.80;61.60
79030;DHT22;68511;51.146;7.012;2023-06-26T00:39:19;19.80;61.60
79030;DHT22;68511;51.146;7.012;2023-06-26T00:40:20;19.80;61.60
79030;DHT22;68511;51.146;7.012;2023-06-26T00:41:20;19.80;61.70
79030;DHT22;68511;51.146;7.012;2023-06-26T00:42:21;19.80;61.60
79030;DHT22;68511;51.146;7.012;2023-06-26T00:43:21;19.80;61.60
79030;DHT22;68511;51.146;7.012;2023-06-26T00:44:22;19.80;61.60
79030;DHT22;68511;51.146;7.012;2023-06-26T00:45:22;19.80;61.60
79030;DHT22;68511;51.146;7.012;2023-06-26T00:46:23;19.80;61.60
79030;DHT22;68511;51.146;7.012;2023-06-26T00:47:24;19.80;61.60
79030;DHT22;68511;51.146;7.012;2023-06-26T00:48:25;19.80;61.60
79030;DHT22;68511;51.146;7.012;2023-06-26T00:49:26;19.80;61.60
79030;DHT22;68511;51.146;7.012;2023-06-26T00:50:28;19.80;61.60
79030;DHT22;68511;51.146;7.012;2023-06-26T00:51:29;19.80;61.50
79030;DHT22;68511;51.146;7.012;2023-06-26T00:52:29;19.80;61.60
79030;DHT22;68511;51.146;7.012;2023-06-26T00:53:30;19.80;61.60
79030;DHT22;68511;51.146;7.012;2023-06-26T00:54:31;19.80;61.60
79030;DHT22;68511;51.146;7.012;2023-06-26T00:55:32;19.80;61.60
79030;DHT22;68511;51.146;7.012;2023-06-26T00:56:32;19.80;61.60
79030;DHT22;68511;51.146;7.012;2023-06-26T00:57:33;19.80;61.60
79030;DHT22;68511;51.146;7.012;2023-06-26T00:58:33;19.80;61.60
79030;DHT22;68511;51.146;7.012;2023-06-26T00:59:34;19.80;61.60
79030;DHT22;68511;51.146;7.012;2023-06-26T01:00:34;19.80;61.60
79030;DHT22;68511;51.146;7.012;2023-06-26T01:01:35;19.80;61.60
79030;DHT22;68511;51.146;7.012;2023-06-26T01:02:35;19.80;61.60
79030;DHT22;68511;51.146;7.012;2023-06-26T01:03:39;19.80;61.60
79030;DHT22;68511;51.146;7.012;2023-06-26T01:04:40;19.80;61.60
79030;DHT22;68511;51.146;7.012;2023-06-26T01:05:47;19.80;61.60
79030;DHT22;68511;51.146;7.012;2023-06-26T01:06:49;19.80;61.60
79030;DHT22;68511;51.146;7.012;2023-06-26T01:07:50;19.80;61.60
79030;DHT22;68511;51.146;7.012;2023-06-26T01:08:51;19.80;61.60
79030;DHT22;68511;51.146;7.012;2023-06-26T01:09:52;19.80;61.60
79030;DHT22;68511;51.146;7.012;2023-06-26T01:10:52;19.80;61.60
79030;DHT22;68511;51.146;7.012;2023-06-26T01:11:53;19.80;61.60
79030;DHT22;68511;51.146;7.012;2023-06-26T01:12:53;19.80;61.60
79030;DHT22;68511;51.146;7.012;2023-06-26T01:13:53;19.80;62.00
79030;DHT22;68511;51.146;7.012;2023-06-26T01:14:55;19.80;61.70
79030;DHT22;68511;51.146;7.012;2023-06-26T01:15:57;19.80;61.50
79030;DHT22;68511;51.146;7.012;2023-06-26T01:16:59;19.80;61.50
79030;DHT22;68511;51.146;7.012;2023-06-26T01:18:00;19.80;61.50
79030;DHT22;68511;51.146;7.012;2023-06-26T01:19:04;19.80;61.50
79030;DHT22;68511;51.146;7.012;2023-06-26T01:20:09;19.80;61.50
79030;DHT22;68511;51.146;7.012;2023-06-26T01:21:09;19.80;61.60
79030;DHT22;68511;51.146;7.012;2023-06-26T01:22:36;19.80;61.50
79030;DHT22;68511;51.146;7.012;2023-06-26T01:23:49;19.80;61.60
79030;DHT22;68511;51.146;7.012;2023-06-26T01:26:14;19.80;61.70
79030;DHT22;68511;51.146;7.012;2023-06-26T01:27:15;19.80;61.50
79030;DHT22;68511;51.146;7.012;2023-06-26T01:28:16;19.80;61.60
79030;DHT22;68511;51.146;7.012;2023-06-26T01:29:18;19.80;61.60
79030;DHT22;68511;51.146;7.012;2023-06-26T01:30:18;19.80;61.60
79030;DHT22;68511;51.146;7.012;2023-06-26T01:31:19;19.80;61.60
79030;DHT22;68511;51.146;7.012;2023-06-26T01:32:20;19.80;61.60
79030;DHT22;68511;51.146;7.012;2023-06-26T01:33:21;19.80;61.60
79030;DHT22;68511;51.146;7.012;2023-06-26T01:34:21;19.80;61.50
79030;DHT22;68511;51.146;7.012;2023-06-26T01:35:22;19.80;61.60
79030;DHT22;68511;51.146;7.012;2023-06-26T01:36:22;19.80;61.50
79030;DHT22;68511;51.146;7.012;2023-06-26T01:37:23;19.80;61.60
79030;DHT22;68511;51.146;7.012;2023-06-26T01:38:23;19.80;61.60
79030;DHT22;68511;51.146;7.012;2023-06-26T01:39:24;19.80;61.60
79030;DHT22;68511;51.146;7.012;2023-06-26T01:40:24;19.80;61.60
79030;DHT22;68511;51.146;7.012;2023-06-26T01:41:25;19.80;61.60
79030;DHT22;68511;51.146;7.012;2023-06-26T01:42:25;19.80;61.60
79030;DHT22;68511;51.146;7.012;2023-06-26T01:44:27;19.80;61.60
79030;DHT22;68511;51.146;7.012;2023-06-26T01:45:28;19.80;61.60
79030;DHT22;68511;51.146;7.012;2023-06-26T01:46:40;19.80;61.60
79030;DHT22;68511;51.146;7.012;2023-06-26T01:47:43;19.80;61.50
79030;DHT22;68511;51.146;7.012;2023-06-26T01:48:47;19.80;61.70
79030;DHT22;68511;51.146;7.012;2023-06-26T01:50:00;19.80;61.60
79030;DHT22;68511;51.146;7.012;2023-06-26T01:51:02;19.80;61.60
79030;DHT22;68511;51.146;7.012;2023-06-26T01:53:11;19.80;61.60
79030;DHT22;68511;51.146;7.012;2023-06-26T01:54:17;19.80;61.50
79030;DHT22;68511;51.146;7.012;2023-06-26T01:56:37;19.80;61.50
79030;DHT22;68511;51.146;7.012;2023-06-26T01:57:38;19.80;61.70
79030;DHT22;68511;51.146;7.012;2023-06-26T01:58:40;19.80;61.60
79030;DHT22;68511;51.146;7.012;2023-06-26T01:59:43;19.80;61.60
79030;DHT22;68511;51.146;7.012;2023-06-26T02:00:44;19.80;61.60
79030;DHT22;68511;51.146;7.012;2023-06-26T02:01:44;19.80;61.50
79030;DHT22;68511;51.146;7.012;2023-06-26T02:02:44;19.80;61.60
79030;DHT22;68511;51.146;7.012;2023-06-26T02:03:47;19.80;61.60
79030;DHT22;68511;51.146;7.012;2023-06-26T02:04:47;19.80;61.00
79030;DHT22;68511;51.146;7.012;2023-06-26T02:05:48;19.80;61.60
79030;DHT22;68511;51.146;7.012;2023-06-26T02:06:49;19.80;61.50
79030;DHT22;68511;51.146;7.012;2023-06-26T02:07:49;19.80;61.60
79030;DHT22;68511;51.146;7.012;2023-06-26T02:08:49;19.80;61.60
79030;DHT22;68511;51.146;7.012;2023-06-26T02:09:50;19.80;61.60
79030;DHT22;68511;51.146;7.012;2023-06-26T02:10:50;19.80;61.60
79030;DHT22;68511;51.146;7.012;2023-06-26T02:11:51;19.80;61.60
79030;DHT22;68511;51.146;7.012;2023-06-26T02:12:51;19.80;61.50
79030;DHT22;68511;51.146;7.012;2023-06-26T02:13:52;19.80;61.60
79030;DHT22;68511;51.146;7.012;2023-06-26T02:14:52;19.80;61.60
79030;DHT22;68511;51.146;7.012;2023-06-26T02:15:52;19.80;61.70
79030;DHT22;68511;51.146;7.012;2023-06-26T02:16:53;19.80;61.60
79030;DHT22;68511;51.146;7.012;2023-06-26T02:17:53;19.80;61.60
79030;DHT22;68511;51.146;7.012;2023-06-26T02:18:54;19.80;61.60
79030;DHT22;68511;51.146;7.012;2023-06-26T02:19:56;19.80;61.60
79030;DHT22;68511;51.146;7.012;2023-06-26T02:20:56;19.80;61.70
79030;DHT22;68511;51.146;7.012;2023-06-26T02:21:56;19.80;61.60
79030;DHT22;68511;51.146;7.012;2023-06-26T02:22:57;19.80;61.60
79030;DHT22;68511;51.146;7.012;2023-06-26T02:23:58;19.80;61.60
79030;DHT22;68511;51.146;7.012;2023-06-26T02:24:58;19.80;61.70
79030;DHT22;68511;51.146;7.012;2023-06-26T02:25:59;19.80;61.70
79030;DHT22;68511;51.146;7.012;2023-06-26T02:27:00;19.80;61.60
79030;DHT22;68511;51.146;7.012;2023-06-26T02:28:00;19.80;61.60
79030;DHT22;68511;51.146;7.012;2023-06-26T02:29:01;19.80;61.60
79030;DHT22;68511;51.146;7.012;2023-06-26T02:30:01;19.80;61.70
79030;DHT22;68511;51.146;7.012;2023-06-26T02:31:02;19.80;61.60
79030;DHT22;68511;51.146;7.012;2023-06-26T02:32:02;19.80;61.60
79030;DHT22;68511;51.146;7.012;2023-06-26T02:33:03;19.80;61.70
79030;DHT22;68511;51.146;7.012;2023-06-26T02:34:03;19.80;61.60
79030;DHT22;68511;51.146;7.012;2023-06-26T02:35:04;19.80;61.60
79030;DHT22;68511;51.146;7.012;2023-06-26T02:36:04;19.80;61.60
79030;DHT22;68511;51.146;7.012;2023-06-26T02:37:05;19.80;61.60
79030;DHT22;68511;51.146;7.012;2023-06-26T02:38:07;19.80;61.60
79030;DHT22;68511;51.146;7.012;2023-06-26T02:39:08;19.80;61.60
79030;DHT22;68511;51.146;7.012;2023-06-26T02:40:09;19.80;61.50
79030;DHT22;68511;51.146;7.012;2023-06-26T02:41:10;19.80;61.60
79030;DHT22;68511;51.146;7.012;2023-06-26T02:42:10;19.80;61.60
79030;DHT22;68511;51.146;7.012;2023-06-26T02:43:11;19.80;61.60
79030;DHT22;68511;51.146;7.012;2023-06-26T02:44:11;19.80;61.60
79030;DHT22;68511;51.146;7.012;2023-06-26T02:45:12;19.80;61.60
79030;DHT22;68511;51.146;7.012;2023-06-26T02:46:13;19.80;61.60
79030;DHT22;68511;51.146;7.012;2023-06-26T02:47:13;19.80;61.50
79030;DHT22;68511;51.146;7.012;2023-06-26T02:48:14;19.80;61.60
79030;DHT22;68511;51.146;7.012;2023-06-26T02:49:14;19.80;61.60
79030;DHT22;68511;51.146;7.012;2023-06-26T02:50:14;19.80;61.60
79030;DHT22;68511;51.146;7.012;2023-06-26T02:51:15;19.80;61.60
79030;DHT22;68511;51.146;7.012;2023-06-26T02:52:15;19.80;61.60
79030;DHT22;68511;51.146;7.012;2023-06-26T02:53:16;19.80;61.70
79030;DHT22;68511;51.146;7.012;2023-06-26T02:54:16;19.80;61.60
79030;DHT22;68511;51.146;7.012;2023-06-26T02:55:17;19.80;61.70
79030;DHT22;68511;51.146;7.012;2023-06-26T02:56:17;19.80;61.70
79030;DHT22;68511;51.146;7.012;2023-06-26T02:57:19;19.80;61.60
79030;DHT22;68511;51.146;7.012;2023-06-26T02:58:20;19.80;61.60
79030;DHT22;68511;51.146;7.012;2023-06-26T02:59:20;19.80;61.60
79030;DHT22;68511;51.146;7.012;2023-06-26T03:00:21;19.80;61.60
79030;DHT22;68511;51.146;7.012;2023-06-26T03:01:21;19.80;61.70
79030;DHT22;68511;51.146;7.012;2023-06-26T03:02:22;19.80;61.70
79030;DHT22;68511;51.146;7.012;2023-06-26T03:03:23;19.80;61.70
79030;DHT22;68511;51.146;7.012;2023-06-26T03:04:24;19.80;61.70
79030;DHT22;68511;51.146;7.012;2023-06-26T03:05:24;19.80;61.80
79030;DHT22;68511;51.146;7.012;2023-06-26T03:06:25;19.80;61.60
79030;DHT22;68511;51.146;7.012;2023-06-26T03:07:25;19.80;61.60
79030;DHT22;68511;51.146;7.012;2023-06-26T03:08:26;19.80;61.70
79030;DHT22;68511;51.146;7.012;2023-06-26T03:09:26;19.80;61.60
79030;DHT22;68511;51.146;7.012;2023-06-26T03:10:27;19.80;61.60
79030;DHT22;68511;51.146;7.012;2023-06-26T03:11:27;19.80;61.60
79030;DHT22;68511;51.146;7.012;2023-06-26T03:12:28;19.80;61.70
79030;DHT22;68511;51.146;7.012;2023-06-26T03:13:28;19.80;61.60
79030;DHT22;68511;51.146;7.012;2023-06-26T03:14:29;19.80;61.70
79030;DHT22;68511;51.146;7.012;2023-06-26T03:15:30;19.80;61.70
79030;DHT22;68511;51.146;7.012;2023-06-26T03:16:30;19.80;61.60
79030;DHT22;68511;51.146;7.012;2023-06-26T03:17:32;19.80;61.60
79030;DHT22;68511;51.146;7.012;2023-06-26T03:18:33;19.80;61.70
79030;DHT22;68511;51.146;7.012;2023-06-26T03:19:33;19.80;61.70
79030;DHT22;68511;51.146;7.012;2023-06-26T03:20:34;19.80;61.60
79030;DHT22;68511;51.146;7.012;2023-06-26T03:21:34;19.80;61.60
79030;DHT22;68511;51.146;7.012;2023-06-26T03:22:35;19.80;61.70
79030;DHT22;68511;51.146;7.012;2023-06-26T03:23:35;19.80;61.70
79030;DHT22;68511;51.146;7.012;2023-06-26T03:25:42;19.80;61.60
79030;DHT22;68511;51.146;7.012;2023-06-26T03:26:42;19.80;61.60
79030;DHT22;68511;51.146;7.012;2023-06-26T03:27:43;19.80;61.70
79030;DHT22;68511;51.146;7.012;2023-06-26T03:28:43;19.80;61.70
79030;DHT22;68511;51.146;7.012;2023-06-26T03:29:43;19.80;61.60
79030;DHT22;68511;51.146;7.012;2023-06-26T03:30:44;19.80;61.70
79030;DHT22;68511;51.146;7.012;2023-06-26T03:31:44;19.80;61.60
79030;DHT22;68511;51.146;7.012;2023-06-26T03:32:45;19.80;61.60
79030;DHT22;68511;51.146;7.012;2023-06-26T03:33:45;19.80;61.60
79030;DHT22;68511;51.146;7.012;2023-06-26T03:34:46;19.80;61.60
79030;DHT22;68511;51.146;7.012;2023-06-26T03:35:46;19.80;61.70
79030;DHT22;68511;51.146;7.012;2023-06-26T03:36:47;19.80;61.70
79030;DHT22;68511;51.146;7.012;2023-06-26T03:37:48;19.80;61.60
79030;DHT22;68511;51.146;7.012;2023-06-26T03:38:48;19.80;61.60
79030;DHT22;68511;51.146;7.012;2023-06-26T03:39:49;19.80;61.50
79030;DHT22;68511;51.146;7.012;2023-06-26T03:40:49;19.80;61.60
79030;DHT22;68511;51.146;7.012;2023-06-26T03:41:50;19.80;61.60
79030;DHT22;68511;51.146;7.012;2023-06-26T03:42:50;19.80;61.60
79030;DHT22;68511;51.146;7.012;2023-06-26T03:43:50;19.80;61.60
79030;DHT22;68511;51.146;7.012;2023-06-26T03:44:51;19.80;61.60
79030;DHT22;68511;51.146;7.012;2023-06-26T03:45:51;19.80;61.60
79030;DHT22;68511;51.146;7.012;2023-06-26T03:46:52;19.80;61.60
79030;DHT22;68511;51.146;7.012;2023-06-26T03:47:52;19.80;61.70
79030;DHT22;68511;51.146;7.012;2023-06-26T03:48:54;19.80;61.60
79030;DHT22;68511;51.146;7.012;2023-06-26T03:49:55;19.80;61.60
79030;DHT22;68511;51.146;7.012;2023-06-26T03:50:55;19.80;61.70
79030;DHT22;68511;51.146;7.012;2023-06-26T03:51:55;19.80;61.60
79030;DHT22;68511;51.146;7.012;2023-06-26T03:52:56;19.80;61.60
79030;DHT22;68511;51.146;7.012;2023-06-26T03:53:56;19.80;61.60
79030;DHT22;68511;51.146;7.012;2023-06-26T03:54:57;19.80;61.60
79030;DHT22;68511;51.146;7.012;2023-06-26T03:55:57;19.80;61.70
79030;DHT22;68511;51.146;7.012;2023-06-26T03:56:58;19.80;61.60
79030;DHT22;68511;51.146;7.012;2023-06-26T03:57:58;19.80;61.60
79030;DHT22;68511;51.146;7.012;2023-06-26T03:58:59;19.80;61.60
79030;DHT22;68511;51.146;7.012;2023-06-26T04:00:00;19.80;61.60
79030;DHT22;68511;51.146;7.012;2023-06-26T04:01:00;19.80;61.60
79030;DHT22;68511;51.146;7.012;2023-06-26T04:02:01;19.80;61.70
79030;DHT22;68511;51.146;7.012;2023-06-26T04:03:02;19.80;61.60
79030;DHT22;68511;51.146;7.012;2023-06-26T04:04:03;19.80;61.60
79030;DHT22;68511;51.146;7.012;2023-06-26T04:05:04;19.80;61.60
79030;DHT22;68511;51.146;7.012;2023-06-26T04:06:05;19.80;61.60
79030;DHT22;68511;51.146;7.012;2023-06-26T04:07:06;19.80;61.60
79030;DHT22;68511;51.146;7.012;2023-06-26T04:08:07;19.80;61.60
79030;DHT22;68511;51.146;7.012;2023-06-26T04:09:08;19.80;61.60
79030;DHT22;68511;51.146;7.012;2023-06-26T04:10:08;19.80;61.60
79030;DHT22;68511;51.146;7.012;2023-06-26T04:11:09;19.80;61.60
79030;DHT22;68511;51.146;7.012;2023-06-26T04:12:10;19.80;61.60
79030;DHT22;68511;51.146;7.012;2023-06-26T04:13:10;19.80;61.60
79030;DHT22;68511;51.146;7.012;2023-06-26T04:14:11;19.80;61.60
79030;DHT22;68511;51.146;7.012;2023-06-26T04:15:12;19.80;61.60
79030;DHT22;68511;51.146;7.012;2023-06-26T04:16:12;19.80;61.70
79030;DHT22;68511;51.146;7.012;2023-06-26T04:17:12;19.80;61.60
79030;DHT22;68511;51.146;7.012;2023-06-26T04:18:13;19.80;61.60
79030;DHT22;68511;51.146;7.012;2023-06-26T04:19:13;19.80;61.70
79030;DHT22;68511;51.146;7.012;2023-06-26T04:20:14;19.80;62.40
79030;DHT22;68511;51.146;7.012;2023-06-26T04:21:14;19.80;61.60
79030;DHT22;68511;51.146;7.012;2023-06-26T04:22:17;19.80;61.70
79030;DHT22;68511;51.146;7.012;2023-06-26T04:23:17;19.80;61.60
79030;DHT22;68511;51.146;7.012;2023-06-26T04:24:18;19.80;61.60
79030;DHT22;68511;51.146;7.012;2023-06-26T04:25:18;19.80;61.70
79030;DHT22;68511;51.146;7.012;2023-06-26T04:26:19;19.80;61.60
79030;DHT22;68511;51.146;7.012;2023-06-26T04:27:19;19.80;61.60
79030;DHT22;68511;51.146;7.012;2023-06-26T04:28:19;19.80;61.60
79030;DHT22;68511;51.146;7.012;2023-06-26T04:29:20;19.80;61.60
79030;DHT22;68511;51.146;7.012;2023-06-26T04:30:21;19.80;61.50
79030;DHT22;68511;51.146;7.012;2023-06-26T04:31:21;19.80;61.50
79030;DHT22;68511;51.146;7.012;2023-06-26T04:32:22;19.80;61.60
79030;DHT22;68511;51.146;7.012;2023-06-26T04:33:24;19.80;61.70
79030;DHT22;68511;51.146;7.012;2023-06-26T04:34:25;19.80;61.60
79030;DHT22;68511;51.146;7.012;2023-06-26T04:35:25;19.80;61.60
79030;DHT22;68511;51.146;7.012;2023-06-26T04:36:26;19.80;61.60
79030;DHT22;68511;51.146;7.012;2023-06-26T04:37:29;19.80;61.60
79030;DHT22;68511;51.146;7.012;2023-06-26T04:38:30;19.80;62.40
79030;DHT22;68511;51.146;7.012;2023-06-26T04:39:31;19.80;62.40
79030;DHT22;68511;51.146;7.012;2023-06-26T04:40:31;19.80;61.60
79030;DHT22;68511;51.146;7.012;2023-06-26T04:41:32;19.80;61.60
79030;DHT22;68511;51.146;7.012;2023-06-26T04:42:32;19.80;61.70
79030;DHT22;68511;51.146;7.012;2023-06-26T04:43:33;19.80;61.70
79030;DHT22;68511;51.146;7.012;2023-06-26T04:44:33;19.80;61.60
79030;DHT22;68511;51.146;7.012;2023-06-26T04:45:34;19.80;61.60
79030;DHT22;68511;51.146;7.012;2023-06-26T04:46:34;19.80;61.80
79030;DHT22;68511;51.146;7.012;2023-06-26T04:47:35;19.90;61.60
79030;DHT22;68511;51.146;7.012;2023-06-26T04:48:35;19.90;61.60
79030;DHT22;68511;51.146;7.012;2023-06-26T04:49:36;19.80;61.40
79030;DHT22;68511;51.146;7.012;2023-06-26T04:50:36;19.80;61.40
79030;DHT22;68511;51.146;7.012;2023-06-26T04:51:36;19.80;61.50
79030;DHT22;68511;51.146;7.012;2023-06-26T04:52:40;19.80;61.70
79030;DHT22;68511;51.146;7.012;2023-06-26T04:53:41;19.80;61.70
79030;DHT22;68511;51.146;7.012;2023-06-26T04:54:41;19.80;61.70
79030;DHT22;68511;51.146;7.012;2023-06-26T04:55:42;19.80;61.80
79030;DHT22;68511;51.146;7.012;2023-06-26T04:56:42;19.80;61.90
79030;DHT22;68511;51.146;7.012;2023-06-26T04:57:43;19.80;62.10
79030;DHT22;68511;51.146;7.012;2023-06-26T04:58:44;19.80;62.20
79030;DHT22;68511;51.146;7.012;2023-06-26T04:59:44;19.80;62.20
79030;DHT22;68511;51.146;7.012;2023-06-26T05:00:45;19.80;62.20
79030;DHT22;68511;51.146;7.012;2023-06-26T05:01:45;19.80;62.10
79030;DHT22;68511;51.146;7.012;2023-06-26T05:02:48;19.90;62.10
79030;DHT22;68511;51.146;7.012;2023-06-26T05:03:48;19.90;62.00
79030;DHT22;68511;51.146;7.012;2023-06-26T05:04:49;19.90;62.10
79030;DHT22;68511;51.146;7.012;2023-06-26T05:05:49;19.90;62.00
79030;DHT22;68511;51.146;7.012;2023-06-26T05:06:50;19.90;61.90
79030;DHT22;68511;51.146;7.012;2023-06-26T05:07:52;19.90;61.70
79030;DHT22;68511;51.146;7.012;2023-06-26T05:08:53;19.90;61.70
79030;DHT22;68511;51.146;7.012;2023-06-26T05:09:53;19.90;61.70
79030;DHT22;68511;51.146;7.012;2023-06-26T05:10:54;19.90;61.50
79030;DHT22;68511;51.146;7.012;2023-06-26T05:11:58;19.90;61.50
79030;DHT22;68511;51.146;7.012;2023-06-26T05:12:58;19.90;61.40
79030;DHT22;68511;51.146;7.012;2023-06-26T05:14:00;19.90;61.50
79030;DHT22;68511;51.146;7.012;2023-06-26T05:15:00;20.00;61.50
79030;DHT22;68511;51.146;7.012;2023-06-26T05:16:00;20.00;61.30
79030;DHT22;68511;51.146;7.012;2023-06-26T05:17:01;20.00;61.20
79030;DHT22;68511;51.146;7.012;2023-06-26T05:18:01;20.00;61.20
79030;DHT22;68511;51.146;7.012;2023-06-26T05:19:02;20.00;61.10
79030;DHT22;68511;51.146;7.012;2023-06-26T05:20:02;20.00;61.10
79030;DHT22;68511;51.146;7.012;2023-06-26T05:21:04;20.00;61.10
79030;DHT22;68511;51.146;7.012;2023-06-26T05:22:04;20.00;61.20
79030;DHT22;68511;51.146;7.012;2023-06-26T05:23:07;20.00;61.20
79030;DHT22;68511;51.146;7.012;2023-06-26T05:24:10;20.10;61.20
79030;DHT22;68511;51.146;7.012;2023-06-26T05:25:12;20.10;61.20
79030;DHT22;68511;51.146;7.012;2023-06-26T05:26:13;20.10;60.90
79030;DHT22;68511;51.146;7.012;2023-06-26T05:27:14;20.10;60.90
79030;DHT22;68511;51.146;7.012;2023-06-26T05:28:21;20.10;60.90
79030;DHT22;68511;51.146;7.012;2023-06-26T05:29:23;20.10;61.00
79030;DHT22;68511;51.146;7.012;2023-06-26T05:30:24;20.00;61.00
79030;DHT22;68511;51.146;7.012;2023-06-26T05:31:27;20.00;61.00
79030;DHT22;68511;51.146;7.012;2023-06-26T05:32:28;20.00;61.00
79030;DHT22;68511;51.146;7.012;2023-06-26T05:33:30;20.00;61.10
79030;DHT22;68511;51.146;7.012;2023-06-26T05:34:31;20.00;61.10
79030;DHT22;68511;51.146;7.012;2023-06-26T05:35:33;20.00;61.10
79030;DHT22;68511;51.146;7.012;2023-06-26T05:36:34;20.00;61.10
79030;DHT22;68511;51.146;7.012;2023-06-26T05:37:35;20.00;61.30
79030;DHT22;68511;51.146;7.012;2023-06-26T05:38:36;20.00;61.20
79030;DHT22;68511;51.146;7.012;2023-06-26T05:39:36;20.00;61.20
79030;DHT22;68511;51.146;7.012;2023-06-26T05:40:37;20.00;61.20
79030;DHT22;68511;51.146;7.012;2023-06-26T05:41:38;20.00;61.10
79030;DHT22;68511;51.146;7.012;2023-06-26T05:42:38;20.00;61.20
79030;DHT22;68511;51.146;7.012;2023-06-26T05:43:39;20.00;61.20
79030;DHT22;68511;51.146;7.012;2023-06-26T05:44:39;20.00;61.30
79030;DHT22;68511;51.146;7.012;2023-06-26T05:45:40;20.00;61.40
79030;DHT22;68511;51.146;7.012;2023-06-26T05:46:40;20.00;61.30
79030;DHT22;68511;51.146;7.012;2023-06-26T05:47:41;20.00;61.30
79030;DHT22;68511;51.146;7.012;2023-06-26T05:48:42;20.00;61.40
79030;DHT22;68511;51.146;7.012;2023-06-26T05:49:42;20.00;61.50
79030;DHT22;68511;51.146;7.012;2023-06-26T05:50:43;20.00;61.50
79030;DHT22;68511;51.146;7.012;2023-06-26T05:51:44;20.00;61.60
79030;DHT22;68511;51.146;7.012;2023-06-26T05:52:44;19.90;61.40
79030;DHT22;68511;51.146;7.012;2023-06-26T05:53:45;19.90;61.50
79030;DHT22;68511;51.146;7.012;2023-06-26T05:54:45;19.90;61.50
79030;DHT22;68511;51.146;7.012;2023-06-26T05:55:46;19.90;61.50
79030;DHT22;68511;51.146;7.012;2023-06-26T05:56:47;19.90;61.50
79030;DHT22;68511;51.146;7.012;2023-06-26T05:57:48;19.90;61.50
79030;DHT22;68511;51.146;7.012;2023-06-26T05:58:50;19.90;61.50
79030;DHT22;68511;51.146;7.012;2023-06-26T05:59:50;19.90;61.50
79030;DHT22;68511;51.146;7.012;2023-06-26T06:00:51;19.90;61.50
79030;DHT22;68511;51.146;7.012;2023-06-26T06:01:52;20.00;61.50
79030;DHT22;68511;51.146;7.012;2023-06-26T06:02:53;20.00;61.50
79030;DHT22;68511;51.146;7.012;2023-06-26T06:03:54;20.00;61.40
79030;DHT22;68511;51.146;7.012;2023-06-26T06:04:54;20.00;61.40
79030;DHT22;68511;51.146;7.012;2023-06-26T06:05:55;20.00;61.40
79030;DHT22;68511;51.146;7.012;2023-06-26T06:06:55;20.00;61.50
79030;DHT22;68511;51.146;7.012;2023-06-26T06:07:56;20.00;61.50
79030;DHT22;68511;51.146;7.012;2023-06-26T06:08:56;19.90;61.50
79030;DHT22;68511;51.146;7.012;2023-06-26T06:09:57;19.90;61.40
79030;DHT22;68511;51.146;7.012;2023-06-26T06:10:59;19.90;61.50
79030;DHT22;68511;51.146;7.012;2023-06-26T06:11:59;19.90;61.50
79030;DHT22;68511;51.146;7.012;2023-06-26T06:13:01;19.90;61.50
79030;DHT22;68511;51.146;7.012;2023-06-26T06:14:02;19.90;61.50
79030;DHT22;68511;51.146;7.012;2023-06-26T06:15:03;19.90;61.50
79030;DHT22;68511;51.146;7.012;2023-06-26T06:16:03;19.90;61.50
79030;DHT22;68511;51.146;7.012;2023-06-26T06:17:04;19.90;61.50
79030;DHT22;68511;51.146;7.012;2023-06-26T06:18:04;19.90;61.50
79030;DHT22;68511;51.146;7.012;2023-06-26T06:19:05;19.90;61.50
79030;DHT22;68511;51.146;7.012;2023-06-26T06:20:07;19.90;61.50
79030;DHT22;68511;51.146;7.012;2023-06-26T06:21:07;19.90;61.50
79030;DHT22;68511;51.146;7.012;2023-06-26T06:22:08;19.90;61.50
79030;DHT22;68511;51.146;7.012;2023-06-26T06:23:08;19.90;61.50
79030;DHT22;68511;51.146;7.012;2023-06-26T06:24:09;19.90;61.50
79030;DHT22;68511;51.146;7.012;2023-06-26T06:25:09;19.90;61.50
79030;DHT22;68511;51.146;7.012;2023-06-26T06:26:10;19.90;61.50
79030;DHT22;68511;51.146;7.012;2023-06-26T06:27:10;19.90;61.60
79030;DHT22;68511;51.146;7.012;2023-06-26T06:28:11;19.90;61.50
79030;DHT22;68511;51.146;7.012;2023-06-26T06:29:11;19.90;61.50
79030;DHT22;68511;51.146;7.012;2023-06-26T06:30:12;19.90;61.60
79030;DHT22;68511;51.146;7.012;2023-06-26T06:31:12;19.90;61.50